sensor_id;sensor_type;location;lat;lon;timestamp;P1;durP1;ratioP1;P2;durP2;ratioP2
1376;SDS011;682;52.502;13.488;2024-03-08T00:00:59;30.33;;;20.27;;
1376;SDS011;682;52.502;13.488;2024-03-08T00:03:31;26.25;;;19.48;;
1376;SDS011;682;52.502;13.488;2024-03-08T00:05:59;23.10;;;17.48;;
1376;SDS011;682;52.502;13.488;2024-03-08T00:08:26;23.38;;;18.27;;
1376;SDS011;682;52.502;13.488;2024-03-08T00:10:56;27.95;;;20.02;;
1376;SDS011;682;52.502;13.488;2024-03-08T00:13:24;22.40;;;19.67;;
1376;SDS011;682;52.502;13.488;2024-03-08T00:15:53;27.17;;;19.08;;
1376;SDS011;682;52.502;13.488;2024-03-08T00:18:22;24.63;;;19.10;;
1376;SDS011;682;52.502;13.488;2024-03-08T00:20:49;25.05;;;20.15;;
1376;SDS011;682;52.502;13.488;2024-03-08T00:23:16;26.58;;;20.00;;
1376;SDS011;682;52.502;13.488;2024-03-08T00:25:44;28.50;;;19.80;;
1376;SDS011;682;52.502;13.488;2024-03-08T00:28:13;28.65;;;19.70;;
1376;SDS011;682;52.502;13.488;2024-03-08T00:30:42;28.45;;;18.90;;
1376;SDS011;682;52.502;13.488;2024-03-08T00:33:09;24.80;;;19.00;;
1376;SDS011;682;52.502;13.488;2024-03-08T00:35:36;26.65;;;19.73;;
1376;SDS011;682;52.502;13.488;2024-03-08T00:38:06;25.33;;;18.88;;
1376;SDS011;682;52.502;13.488;2024-03-08T00:40:33;29.65;;;19.98;;
1376;SDS011;682;52.502;13.488;2024-03-08T00:43:00;25.88;;;18.55;;
1376;SDS011;682;52.502;13.488;2024-03-08T00:45:33;26.17;;;19.90;;
1376;SDS011;682;52.502;13.488;2024-03-08T00:48:02;27.20;;;19.52;;
1376;SDS011;682;52.502;13.488;2024-03-08T00:50:30;25.40;;;18.33;;
1376;SDS011;682;52.502;13.488;2024-03-08T00:52:59;28.45;;;19.88;;
1376;SDS011;682;52.502;13.488;2024-03-08T00:55:26;25.05;;;18.40;;
1376;SDS011;682;52.502;13.488;2024-03-08T00:57:54;29.45;;;20.05;;
1376;SDS011;682;52.502;13.488;2024-03-08T01:00:22;26.45;;;20.35;;
1376;SDS011;682;52.502;13.488;2024-03-08T01:02:52;29.67;;;20.92;;
1376;SDS011;682;52.502;13.488;2024-03-08T01:05:19;26.42;;;20.13;;
1376;SDS011;682;52.502;13.488;2024-03-08T01:07:46;26.33;;;18.98;;
1376;SDS011;682;52.502;13.488;2024-03-08T01:10:15;25.13;;;20.63;;
1376;SDS011;682;52.502;13.488;2024-03-08T01:12:43;27.35;;;20.80;;
1376;SDS011;682;52.502;13.488;2024-03-08T01:15:11;31.08;;;21.13;;
1376;SDS011;682;52.502;13.488;2024-03-08T01:17:38;28.95;;;18.77;;
1376;SDS011;682;52.502;13.488;2024-03-08T01:20:07;27.45;;;20.45;;
1376;SDS011;682;52.502;13.488;2024-03-08T01:22:36;31.15;;;19.75;;
1376;SDS011;682;52.502;13.488;2024-03-08T01:25:03;27.25;;;20.73;;
1376;SDS011;682;52.502;13.488;2024-03-08T01:27:31;31.80;;;21.20;;
1376;SDS011;682;52.502;13.488;2024-03-08T01:29:58;28.13;;;21.45;;
1376;SDS011;682;52.502;13.488;2024-03-08T01:32:25;28.55;;;21.42;;
1376;SDS011;682;52.502;13.488;2024-03-08T01:34:52;25.02;;;19.42;;
1376;SDS011;682;52.502;13.488;2024-03-08T01:37:21;27.80;;;19.90;;
1376;SDS011;682;52.502;13.488;2024-03-08T01:39:48;30.25;;;20.85;;
1376;SDS011;682;52.502;13.488;2024-03-08T01:42:15;26.90;;;19.52;;
1376;SDS011;682;52.502;13.488;2024-03-08T01:44:42;29.10;;;21.85;;
1376;SDS011;682;52.502;13.488;2024-03-08T01:47:10;30.80;;;21.80;;
1376;SDS011;682;52.502;13.488;2024-03-08T01:49:37;26.50;;;21.27;;
1376;SDS011;682;52.502;13.488;2024-03-08T01:52:04;27.85;;;20.13;;
1376;SDS011;682;52.502;13.488;2024-03-08T01:54:33;30.67;;;20.17;;
1376;SDS011;682;52.502;13.488;2024-03-08T01:57:01;31.10;;;21.40;;
1376;SDS011;682;52.502;13.488;2024-03-08T01:59:28;27.98;;;22.15;;
1376;SDS011;682;52.502;13.488;2024-03-08T02:01:55;27.83;;;19.00;;
1376;SDS011;682;52.502;13.488;2024-03-08T02:04:28;27.25;;;19.67;;
1376;SDS011;682;52.502;13.488;2024-03-08T02:06:56;35.38;;;22.63;;
1376;SDS011;682;52.502;13.488;2024-03-08T02:09:24;29.30;;;19.08;;
1376;SDS011;682;52.502;13.488;2024-03-08T02:11:52;27.45;;;20.55;;
1376;SDS011;682;52.502;13.488;2024-03-08T02:14:20;30.52;;;20.58;;
1376;SDS011;682;52.502;13.488;2024-03-08T02:16:47;28.58;;;20.80;;
1376;SDS011;682;52.502;13.488;2024-03-08T02:19:16;28.25;;;21.55;;
1376;SDS011;682;52.502;13.488;2024-03-08T02:21:46;27.17;;;19.88;;
1376;SDS011;682;52.502;13.488;2024-03-08T02:24:13;25.23;;;20.35;;
1376;SDS011;682;52.502;13.488;2024-03-08T02:26:41;34.03;;;20.08;;
1376;SDS011;682;52.502;13.488;2024-03-08T02:29:08;26.52;;;20.30;;
1376;SDS011;682;52.502;13.488;2024-03-08T02:31:39;26.95;;;19.33;;
1376;SDS011;682;52.502;13.488;2024-03-08T02:34:07;27.75;;;19.90;;
1376;SDS011;682;52.502;13.488;2024-03-08T02:36:34;30.15;;;20.85;;
1376;SDS011;682;52.502;13.488;2024-03-08T02:39:03;30.67;;;21.30;;
1376;SDS011;682;52.502;13.488;2024-03-08T02:41:31;27.17;;;20.55;;
1376;SDS011;682;52.502;13.488;2024-03-08T02:43:58;25.50;;;19.60;;
1376;SDS011;682;52.502;13.488;2024-03-08T02:46:26;25.48;;;19.50;;
1376;SDS011;682;52.502;13.488;2024-03-08T02:48:53;26.85;;;19.83;;
1376;SDS011;682;52.502;13.488;2024-03-08T02:51:20;29.38;;;20.88;;
1376;SDS011;682;52.502;13.488;2024-03-08T02:53:47;27.30;;;21.65;;
1376;SDS011;682;52.502;13.488;2024-03-08T02:56:18;26.92;;;19.02;;
1376;SDS011;682;52.502;13.488;2024-03-08T02:58:47;32.92;;;22.10;;
1376;SDS011;682;52.502;13.488;2024-03-08T03:01:16;29.70;;;20.95;;
1376;SDS011;682;52.502;13.488;2024-03-08T03:03:45;29.70;;;22.02;;
1376;SDS011;682;52.502;13.488;2024-03-08T03:06:13;31.20;;;22.50;;
1376;SDS011;682;52.502;13.488;2024-03-08T03:08:40;30.48;;;21.85;;
1376;SDS011;682;52.502;13.488;2024-03-08T03:11:09;24.88;;;20.40;;
1376;SDS011;682;52.502;13.488;2024-03-08T03:13:37;30.48;;;22.45;;
1376;SDS011;682;52.502;13.488;2024-03-08T03:16:04;30.52;;;20.95;;
1376;SDS011;682;52.502;13.488;2024-03-08T03:18:32;24.90;;;20.13;;
1376;SDS011;682;52.502;13.488;2024-03-08T03:21:02;28.83;;;21.13;;
1376;SDS011;682;52.502;13.488;2024-03-08T03:23:32;31.52;;;21.77;;
1376;SDS011;682;52.502;13.488;2024-03-08T03:26:00;30.42;;;22.15;;
1376;SDS011;682;52.502;13.488;2024-03-08T03:28:27;29.85;;;21.58;;
1376;SDS011;682;52.502;13.488;2024-03-08T03:30:56;31.00;;;22.83;;
1376;SDS011;682;52.502;13.488;2024-03-08T03:33:23;30.73;;;23.50;;
1376;SDS011;682;52.502;13.488;2024-03-08T03:35:50;32.80;;;22.23;;
1376;SDS011;682;52.502;13.488;2024-03-08T03:38:18;33.42;;;24.67;;
1376;SDS011;682;52.502;13.488;2024-03-08T03:40:48;29.73;;;22.98;;
1376;SDS011;682;52.502;13.488;2024-03-08T03:43:17;31.35;;;23.02;;
1376;SDS011;682;52.502;13.488;2024-03-08T03:45:44;33.13;;;24.65;;
1376;SDS011;682;52.502;13.488;2024-03-08T03:48:12;32.17;;;22.88;;
1376;SDS011;682;52.502;13.488;2024-03-08T03:50:39;32.03;;;22.92;;
1376;SDS011;682;52.502;13.488;2024-03-08T03:53:09;31.33;;;23.55;;
1376;SDS011;682;52.502;13.488;2024-03-08T03:55:38;32.38;;;23.35;;
1376;SDS011;682;52.502;13.488;2024-03-08T03:58:05;30.52;;;22.33;;
1376;SDS011;682;52.502;13.488;2024-03-08T04:00:32;33.83;;;24.65;;
1376;SDS011;682;52.502;13.488;2024-03-08T04:02:59;33.53;;;23.90;;
1376;SDS011;682;52.502;13.488;2024-03-08T04:05:27;31.60;;;24.45;;
1376;SDS011;682;52.502;13.488;2024-03-08T04:07:54;42.05;;;24.40;;
1376;SDS011;682;52.502;13.488;2024-03-08T04:10:22;33.17;;;23.88;;
1376;SDS011;682;52.502;13.488;2024-03-08T04:12:49;37.15;;;28.23;;
1376;SDS011;682;52.502;13.488;2024-03-08T04:15:16;31.90;;;23.23;;
1376;SDS011;682;52.502;13.488;2024-03-08T04:17:47;37.42;;;25.17;;
1376;SDS011;682;52.502;13.488;2024-03-08T04:20:14;34.38;;;23.80;;
1376;SDS011;682;52.502;13.488;2024-03-08T04:22:43;31.58;;;23.73;;
1376;SDS011;682;52.502;13.488;2024-03-08T04:25:12;34.88;;;25.58;;
1376;SDS011;682;52.502;13.488;2024-03-08T04:27:40;34.88;;;25.35;;
1376;SDS011;682;52.502;13.488;2024-03-08T04:30:07;36.33;;;25.70;;
1376;SDS011;682;52.502;13.488;2024-03-08T04:32:36;30.98;;;23.80;;
1376;SDS011;682;52.502;13.488;2024-03-08T04:35:03;33.03;;;23.90;;
1376;SDS011;682;52.502;13.488;2024-03-08T04:37:30;34.20;;;25.23;;
1376;SDS011;682;52.502;13.488;2024-03-08T04:39:59;36.05;;;24.10;;
1376;SDS011;682;52.502;13.488;2024-03-08T04:42:26;38.15;;;26.55;;
1376;SDS011;682;52.502;13.488;2024-03-08T04:44:54;31.02;;;24.23;;
1376;SDS011;682;52.502;13.488;2024-03-08T04:47:22;32.20;;;24.17;;
1376;SDS011;682;52.502;13.488;2024-03-08T04:49:51;33.65;;;25.48;;
1376;SDS011;682;52.502;13.488;2024-03-08T04:52:18;35.50;;;24.95;;
1376;SDS011;682;52.502;13.488;2024-03-08T04:54:45;35.40;;;24.55;;
1376;SDS011;682;52.502;13.488;2024-03-08T04:57:15;39.63;;;26.05;;
1376;SDS011;682;52.502;13.488;2024-03-08T04:59:43;35.63;;;26.13;;
1376;SDS011;682;52.502;13.488;2024-03-08T05:02:10;36.85;;;26.60;;
1376;SDS011;682;52.502;13.488;2024-03-08T05:04:40;34.35;;;25.40;;
1376;SDS011;682;52.502;13.488;2024-03-08T05:07:07;32.88;;;23.40;;
1376;SDS011;682;52.502;13.488;2024-03-08T05:09:34;36.20;;;26.33;;
1376;SDS011;682;52.502;13.488;2024-03-08T05:12:02;39.47;;;27.13;;
1376;SDS011;682;52.502;13.488;2024-03-08T05:14:31;34.63;;;25.27;;
1376;SDS011;682;52.502;13.488;2024-03-08T05:17:00;34.92;;;25.55;;
1376;SDS011;682;52.502;13.488;2024-03-08T05:19:27;40.15;;;25.88;;
1376;SDS011;682;52.502;13.488;2024-03-08T05:21:55;34.60;;;24.35;;
1376;SDS011;682;52.502;13.488;2024-03-08T05:24:22;37.95;;;25.60;;
1376;SDS011;682;52.502;13.488;2024-03-08T05:26:50;35.78;;;24.70;;
1376;SDS011;682;52.502;13.488;2024-03-08T05:29:18;35.72;;;25.98;;
1376;SDS011;682;52.502;13.488;2024-03-08T05:31:47;35.15;;;24.40;;
1376;SDS011;682;52.502;13.488;2024-03-08T05:34:15;42.67;;;28.15;;
1376;SDS011;682;52.502;13.488;2024-03-08T05:36:44;36.70;;;26.80;;
1376;SDS011;682;52.502;13.488;2024-03-08T05:39:11;39.58;;;27.20;;
1376;SDS011;682;52.502;13.488;2024-03-08T05:41:39;36.08;;;26.77;;
1376;SDS011;682;52.502;13.488;2024-03-08T05:44:06;40.97;;;26.77;;
1376;SDS011;682;52.502;13.488;2024-03-08T05:46:34;37.25;;;27.77;;
1376;SDS011;682;52.502;13.488;2024-03-08T05:49:02;34.15;;;27.35;;
1376;SDS011;682;52.502;13.488;2024-03-08T05:51:30;37.80;;;26.48;;
1376;SDS011;682;52.502;13.488;2024-03-08T05:53:59;33.90;;;25.60;;
1376;SDS011;682;52.502;13.488;2024-03-08T05:56:27;40.33;;;26.98;;
1376;SDS011;682;52.502;13.488;2024-03-08T05:58:54;35.47;;;28.17;;
1376;SDS011;682;52.502;13.488;2024-03-08T06:01:23;36.55;;;27.98;;
1376;SDS011;682;52.502;13.488;2024-03-08T06:03:50;42.00;;;29.00;;
1376;SDS011;682;52.502;13.488;2024-03-08T06:06:20;39.42;;;28.85;;
1376;SDS011;682;52.502;13.488;2024-03-08T06:08:50;40.10;;;28.77;;
1376;SDS011;682;52.502;13.488;2024-03-08T06:11:18;39.92;;;28.45;;
1376;SDS011;682;52.502;13.488;2024-03-08T06:13:46;41.53;;;27.67;;
1376;SDS011;682;52.502;13.488;2024-03-08T06:16:14;41.22;;;28.00;;
1376;SDS011;682;52.502;13.488;2024-03-08T06:18:42;39.65;;;27.15;;
1376;SDS011;682;52.502;13.488;2024-03-08T06:21:09;41.92;;;28.17;;
1376;SDS011;682;52.502;13.488;2024-03-08T06:23:38;36.83;;;26.52;;
1376;SDS011;682;52.502;13.488;2024-03-08T06:26:06;42.05;;;28.45;;
1376;SDS011;682;52.502;13.488;2024-03-08T06:28:34;45.15;;;30.02;;
1376;SDS011;682;52.502;13.488;2024-03-08T06:31:01;44.60;;;30.27;;
1376;SDS011;682;52.502;13.488;2024-03-08T06:33:29;40.88;;;30.95;;
1376;SDS011;682;52.502;13.488;2024-03-08T06:35:57;38.90;;;30.00;;
1376;SDS011;682;52.502;13.488;2024-03-08T06:38:25;41.35;;;28.38;;
1376;SDS011;682;52.502;13.488;2024-03-08T06:40:54;41.92;;;29.33;;
1376;SDS011;682;52.502;13.488;2024-03-08T06:43:21;39.92;;;27.75;;
1376;SDS011;682;52.502;13.488;2024-03-08T06:45:50;35.83;;;27.63;;
1376;SDS011;682;52.502;13.488;2024-03-08T06:48:17;40.50;;;28.38;;
1376;SDS011;682;52.502;13.488;2024-03-08T06:50:45;34.33;;;27.55;;
1376;SDS011;682;52.502;13.488;2024-03-08T06:53:13;39.08;;;27.77;;
1376;SDS011;682;52.502;13.488;2024-03-08T06:55:40;36.70;;;26.95;;
1376;SDS011;682;52.502;13.488;2024-03-08T06:58:09;43.83;;;28.73;;
1376;SDS011;682;52.502;13.488;2024-03-08T07:00:37;38.63;;;27.75;;
1376;SDS011;682;52.502;13.488;2024-03-08T07:03:06;37.65;;;25.52;;
1376;SDS011;682;52.502;13.488;2024-03-08T07:05:37;32.78;;;26.27;;
1376;SDS011;682;52.502;13.488;2024-03-08T07:08:05;35.60;;;27.45;;
1376;SDS011;682;52.502;13.488;2024-03-08T07:10:35;34.70;;;26.15;;
1376;SDS011;682;52.502;13.488;2024-03-08T07:13:03;34.58;;;26.25;;
1376;SDS011;682;52.502;13.488;2024-03-08T07:15:32;37.38;;;26.77;;
1376;SDS011;682;52.502;13.488;2024-03-08T07:18:00;33.85;;;26.38;;
1376;SDS011;682;52.502;13.488;2024-03-08T07:20:27;31.90;;;25.20;;
1376;SDS011;682;52.502;13.488;2024-03-08T07:22:54;40.45;;;28.35;;
1376;SDS011;682;52.502;13.488;2024-03-08T07:25:21;39.05;;;27.95;;
1376;SDS011;682;52.502;13.488;2024-03-08T07:27:49;34.40;;;26.20;;
1376;SDS011;682;52.502;13.488;2024-03-08T07:30:17;40.30;;;25.52;;
1376;SDS011;682;52.502;13.488;2024-03-08T07:33:00;43.50;;;27.35;;
1376;SDS011;682;52.502;13.488;2024-03-08T07:35:27;34.50;;;26.23;;
1376;SDS011;682;52.502;13.488;2024-03-08T07:37:55;35.03;;;26.90;;
1376;SDS011;682;52.502;13.488;2024-03-08T07:40:25;34.38;;;24.98;;
1376;SDS011;682;52.502;13.488;2024-03-08T07:42:52;30.88;;;23.83;;
1376;SDS011;682;52.502;13.488;2024-03-08T07:45:22;34.00;;;25.55;;
1376;SDS011;682;52.502;13.488;2024-03-08T07:47:50;35.83;;;23.73;;
1376;SDS011;682;52.502;13.488;2024-03-08T07:50:20;33.63;;;26.63;;
1376;SDS011;682;52.502;13.488;2024-03-08T07:52:48;28.70;;;24.20;;
1376;SDS011;682;52.502;13.488;2024-03-08T07:55:15;32.67;;;24.23;;
1376;SDS011;682;52.502;13.488;2024-03-08T07:57:42;32.78;;;23.48;;
1376;SDS011;682;52.502;13.488;2024-03-08T08:00:10;33.38;;;25.27;;
1376;SDS011;682;52.502;13.488;2024-03-08T08:02:43;33.22;;;25.05;;
1376;SDS011;682;52.502;13.488;2024-03-08T08:05:10;36.17;;;25.52;;
1376;SDS011;682;52.502;13.488;2024-03-08T08:07:40;33.35;;;25.55;;
1376;SDS011;682;52.502;13.488;2024-03-08T08:10:11;34.45;;;25.25;;
1376;SDS011;682;52.502;13.488;2024-03-08T08:12:44;32.15;;;24.42;;
1376;SDS011;682;52.502;13.488;2024-03-08T08:15:16;31.65;;;23.73;;
1376;SDS011;682;52.502;13.488;2024-03-08T08:17:44;32.30;;;24.55;;
1376;SDS011;682;52.502;13.488;2024-03-08T08:20:12;33.15;;;25.40;;
1376;SDS011;682;52.502;13.488;2024-03-08T08:22:41;29.13;;;22.98;;
1376;SDS011;682;52.502;13.488;2024-03-08T08:25:10;31.42;;;23.85;;
1376;SDS011;682;52.502;13.488;2024-03-08T08:27:40;31.58;;;26.02;;
1376;SDS011;682;52.502;13.488;2024-03-08T08:30:09;33.80;;;24.00;;
1376;SDS011;682;52.502;13.488;2024-03-08T08:32:41;29.88;;;23.80;;
1376;SDS011;682;52.502;13.488;2024-03-08T08:35:12;33.42;;;24.00;;
1376;SDS011;682;52.502;13.488;2024-03-08T08:37:39;30.08;;;22.27;;
1376;SDS011;682;52.502;13.488;2024-03-08T08:40:08;31.05;;;24.92;;
1376;SDS011;682;52.502;13.488;2024-03-08T08:42:39;28.98;;;24.27;;
1376;SDS011;682;52.502;13.488;2024-03-08T08:45:08;28.63;;;24.13;;
1376;SDS011;682;52.502;13.488;2024-03-08T08:47:36;29.38;;;23.52;;
1376;SDS011;682;52.502;13.488;2024-03-08T08:50:03;30.02;;;22.17;;
1376;SDS011;682;52.502;13.488;2024-03-08T08:52:32;32.63;;;23.77;;
1376;SDS011;682;52.502;13.488;2024-03-08T08:55:00;28.83;;;23.27;;
1376;SDS011;682;52.502;13.488;2024-03-08T08:57:35;30.13;;;22.92;;
1376;SDS011;682;52.502;13.488;2024-03-08T09:00:07;27.75;;;22.83;;
1376;SDS011;682;52.502;13.488;2024-03-08T09:02:39;28.90;;;23.87;;
1376;SDS011;682;52.502;13.488;2024-03-08T09:05:07;30.67;;;25.10;;
1376;SDS011;682;52.502;13.488;2024-03-08T09:07:39;29.77;;;23.87;;
1376;SDS011;682;52.502;13.488;2024-03-08T09:10:07;30.97;;;23.80;;
1376;SDS011;682;52.502;13.488;2024-03-08T09:12:38;31.37;;;22.17;;
1376;SDS011;682;52.502;13.488;2024-03-08T09:15:06;26.40;;;22.70;;
1376;SDS011;682;52.502;13.488;2024-03-08T09:17:36;24.00;;;21.50;;
1376;SDS011;682;52.502;13.488;2024-03-08T09:20:05;26.07;;;22.97;;
1376;SDS011;682;52.502;13.488;2024-03-08T09:22:33;26.87;;;23.47;;
1376;SDS011;682;52.502;13.488;2024-03-08T09:25:00;22.83;;;20.33;;
1376;SDS011;682;52.502;13.488;2024-03-08T09:27:30;24.60;;;21.93;;
1376;SDS011;682;52.502;13.488;2024-03-08T09:30:05;23.40;;;21.10;;
1376;SDS011;682;52.502;13.488;2024-03-08T09:32:33;26.00;;;22.07;;
1376;SDS011;682;52.502;13.488;2024-03-08T09:35:03;27.50;;;22.73;;
1376;SDS011;682;52.502;13.488;2024-03-08T09:37:32;27.43;;;23.13;;
1376;SDS011;682;52.502;13.488;2024-03-08T09:40:00;24.17;;;20.93;;
1376;SDS011;682;52.502;13.488;2024-03-08T09:42:34;26.57;;;22.83;;
1376;SDS011;682;52.502;13.488;2024-03-08T09:45:05;26.50;;;23.57;;
1376;SDS011;682;52.502;13.488;2024-03-08T09:47:36;26.30;;;22.40;;
1376;SDS011;682;52.502;13.488;2024-03-08T09:50:06;26.70;;;21.77;;
1376;SDS011;682;52.502;13.488;2024-03-08T09:52:34;25.83;;;23.00;;
1376;SDS011;682;52.502;13.488;2024-03-08T09:55:05;24.10;;;21.53;;
1376;SDS011;682;52.502;13.488;2024-03-08T09:57:33;26.00;;;20.57;;
1376;SDS011;682;52.502;13.488;2024-03-08T10:00:05;23.50;;;21.00;;
1376;SDS011;682;52.502;13.488;2024-03-08T10:02:44;22.63;;;20.20;;
1376;SDS011;682;52.502;13.488;2024-03-08T10:05:12;23.93;;;19.50;;
1376;SDS011;682;52.502;13.488;2024-03-08T10:07:39;24.23;;;19.77;;
1376;SDS011;682;52.502;13.488;2024-03-08T10:10:06;22.67;;;19.63;;
1376;SDS011;682;52.502;13.488;2024-03-08T10:12:37;23.00;;;20.50;;
1376;SDS011;682;52.502;13.488;2024-03-08T10:15:07;23.30;;;20.80;;
1376;SDS011;682;52.502;13.488;2024-03-08T10:17:41;29.07;;;21.83;;
1376;SDS011;682;52.502;13.488;2024-03-08T10:20:13;22.13;;;19.30;;
1376;SDS011;682;52.502;13.488;2024-03-08T10:22:41;22.83;;;20.30;;
1376;SDS011;682;52.502;13.488;2024-03-08T10:25:15;24.30;;;20.07;;
1376;SDS011;682;52.502;13.488;2024-03-08T10:27:45;25.23;;;20.23;;
1376;SDS011;682;52.502;13.488;2024-03-08T10:30:14;21.43;;;19.07;;
1376;SDS011;682;52.502;13.488;2024-03-08T10:32:45;22.90;;;19.10;;
1376;SDS011;682;52.502;13.488;2024-03-08T10:35:14;20.57;;;18.30;;
1376;SDS011;682;52.502;13.488;2024-03-08T10:37:45;20.20;;;16.50;;
1376;SDS011;682;52.502;13.488;2024-03-08T10:40:15;18.77;;;16.97;;
1376;SDS011;682;52.502;13.488;2024-03-08T10:42:47;18.60;;;16.77;;
1376;SDS011;682;52.502;13.488;2024-03-08T10:45:26;19.43;;;17.50;;
1376;SDS011;682;52.502;13.488;2024-03-08T10:48:03;20.20;;;18.07;;
1376;SDS011;682;52.502;13.488;2024-03-08T10:50:36;19.70;;;17.77;;
1376;SDS011;682;52.502;13.488;2024-03-08T10:53:04;20.67;;;17.60;;
1376;SDS011;682;52.502;13.488;2024-03-08T10:55:33;21.03;;;18.17;;
1376;SDS011;682;52.502;13.488;2024-03-08T10:58:06;19.47;;;17.53;;
1376;SDS011;682;52.502;13.488;2024-03-08T11:00:35;21.53;;;17.20;;
1376;SDS011;682;52.502;13.488;2024-03-08T11:03:03;23.03;;;18.23;;
1376;SDS011;682;52.502;13.488;2024-03-08T11:05:31;20.97;;;18.73;;
1376;SDS011;682;52.502;13.488;2024-03-08T11:08:03;21.43;;;19.23;;
1376;SDS011;682;52.502;13.488;2024-03-08T11:10:33;19.40;;;17.40;;
1376;SDS011;682;52.502;13.488;2024-03-08T11:13:00;21.40;;;18.47;;
1376;SDS011;682;52.502;13.488;2024-03-08T11:15:28;21.80;;;19.40;;
1376;SDS011;682;52.502;13.488;2024-03-08T11:17:59;23.57;;;19.20;;
1376;SDS011;682;52.502;13.488;2024-03-08T11:20:28;19.80;;;17.77;;
1376;SDS011;682;52.502;13.488;2024-03-08T11:22:59;19.37;;;17.37;;
1376;SDS011;682;52.502;13.488;2024-03-08T11:25:31;20.10;;;18.00;;
1376;SDS011;682;52.502;13.488;2024-03-08T11:28:08;19.43;;;17.43;;
1376;SDS011;682;52.502;13.488;2024-03-08T11:30:41;20.63;;;18.43;;
1376;SDS011;682;52.502;13.488;2024-03-08T11:33:12;20.30;;;18.20;;
1376;SDS011;682;52.502;13.488;2024-03-08T11:35:41;21.23;;;19.00;;
1376;SDS011;682;52.502;13.488;2024-03-08T11:38:11;20.23;;;18.10;;
1376;SDS011;682;52.502;13.488;2024-03-08T11:40:41;19.27;;;17.27;;
1376;SDS011;682;52.502;13.488;2024-03-08T11:43:15;20.13;;;18.07;;
1376;SDS011;682;52.502;13.488;2024-03-08T11:45:43;19.07;;;17.27;;
1376;SDS011;682;52.502;13.488;2024-03-08T11:48:11;20.30;;;18.30;;
1376;SDS011;682;52.502;13.488;2024-03-08T11:50:40;19.40;;;17.60;;
1376;SDS011;682;52.502;13.488;2024-03-08T11:53:08;18.63;;;16.83;;
1376;SDS011;682;52.502;13.488;2024-03-08T11:55:38;18.30;;;16.70;;
1376;SDS011;682;52.502;13.488;2024-03-08T11:58:07;19.23;;;17.33;;
1376;SDS011;682;52.502;13.488;2024-03-08T12:00:35;21.33;;;19.13;;
1376;SDS011;682;52.502;13.488;2024-03-08T12:03:06;21.47;;;19.37;;
1376;SDS011;682;52.502;13.488;2024-03-08T12:05:36;21.10;;;18.83;;
1376;SDS011;682;52.502;13.488;2024-03-08T12:08:03;21.13;;;19.00;;
1376;SDS011;682;52.502;13.488;2024-03-08T12:10:32;19.90;;;17.93;;
1376;SDS011;682;52.502;13.488;2024-03-08T12:13:00;19.77;;;17.80;;
1376;SDS011;682;52.502;13.488;2024-03-08T12:15:28;20.23;;;18.23;;
1376;SDS011;682;52.502;13.488;2024-03-08T12:17:59;19.63;;;17.70;;
1376;SDS011;682;52.502;13.488;2024-03-08T12:20:27;19.67;;;17.63;;
1376;SDS011;682;52.502;13.488;2024-03-08T12:22:57;20.10;;;18.10;;
1376;SDS011;682;52.502;13.488;2024-03-08T12:25:26;20.70;;;18.60;;
1376;SDS011;682;52.502;13.488;2024-03-08T12:27:56;21.97;;;19.80;;
1376;SDS011;682;52.502;13.488;2024-03-08T12:30:35;20.80;;;18.60;;
1376;SDS011;682;52.502;13.488;2024-03-08T12:33:12;19.43;;;17.43;;
1376;SDS011;682;52.502;13.488;2024-03-08T12:35:39;19.13;;;17.23;;
1376;SDS011;682;52.502;13.488;2024-03-08T12:38:08;19.73;;;17.70;;
1376;SDS011;682;52.502;13.488;2024-03-08T12:40:36;19.50;;;17.70;;
1376;SDS011;682;52.502;13.488;2024-03-08T12:43:07;20.93;;;18.70;;
1376;SDS011;682;52.502;13.488;2024-03-08T12:45:34;21.13;;;19.03;;
1376;SDS011;682;52.502;13.488;2024-03-08T12:48:01;20.73;;;18.77;;
1376;SDS011;682;52.502;13.488;2024-03-08T12:50:40;21.27;;;19.17;;
1376;SDS011;682;52.502;13.488;2024-03-08T12:53:10;19.30;;;17.60;;
1376;SDS011;682;52.502;13.488;2024-03-08T12:55:38;19.40;;;17.60;;
1376;SDS011;682;52.502;13.488;2024-03-08T12:58:09;20.40;;;18.40;;
1376;SDS011;682;52.502;13.488;2024-03-08T13:00:36;19.47;;;17.17;;
1376;SDS011;682;52.502;13.488;2024-03-08T13:03:07;19.20;;;17.30;;
1376;SDS011;682;52.502;13.488;2024-03-08T13:05:36;19.40;;;17.30;;
1376;SDS011;682;52.502;13.488;2024-03-08T13:08:05;19.97;;;17.77;;
1376;SDS011;682;52.502;13.488;2024-03-08T13:10:39;19.97;;;17.90;;
1376;SDS011;682;52.502;13.488;2024-03-08T13:13:08;20.50;;;18.40;;
1376;SDS011;682;52.502;13.488;2024-03-08T13:15:35;21.20;;;18.50;;
1376;SDS011;682;52.502;13.488;2024-03-08T13:18:03;18.80;;;16.87;;
1376;SDS011;682;52.502;13.488;2024-03-08T13:20:34;19.10;;;17.17;;
1376;SDS011;682;52.502;13.488;2024-03-08T13:23:04;20.60;;;16.70;;
1376;SDS011;682;52.502;13.488;2024-03-08T13:25:33;19.67;;;17.60;;
1376;SDS011;682;52.502;13.488;2024-03-08T13:28:07;17.73;;;16.00;;
1376;SDS011;682;52.502;13.488;2024-03-08T13:30:35;18.37;;;16.33;;
1376;SDS011;682;52.502;13.488;2024-03-08T13:33:04;17.70;;;16.00;;
1376;SDS011;682;52.502;13.488;2024-03-08T13:35:32;17.37;;;15.67;;
1376;SDS011;682;52.502;13.488;2024-03-08T13:37:59;17.77;;;15.67;;
1376;SDS011;682;52.502;13.488;2024-03-08T13:40:28;18.77;;;16.33;;
1376;SDS011;682;52.502;13.488;2024-03-08T13:42:56;16.93;;;15.13;;
1376;SDS011;682;52.502;13.488;2024-03-08T13:45:24;17.90;;;15.87;;
1376;SDS011;682;52.502;13.488;2024-03-08T13:47:50;17.73;;;15.90;;
1376;SDS011;682;52.502;13.488;2024-03-08T13:50:19;16.90;;;15.10;;
1376;SDS011;682;52.502;13.488;2024-03-08T13:52:47;19.43;;;17.37;;
1376;SDS011;682;52.502;13.488;2024-03-08T13:55:16;18.03;;;15.40;;
1376;SDS011;682;52.502;13.488;2024-03-08T13:57:43;16.83;;;14.83;;
1376;SDS011;682;52.502;13.488;2024-03-08T14:00:11;17.40;;;15.60;;
1376;SDS011;682;52.502;13.488;2024-03-08T14:02:41;16.80;;;14.40;;
1376;SDS011;682;52.502;13.488;2024-03-08T14:05:08;20.23;;;15.73;;
1376;SDS011;682;52.502;13.488;2024-03-08T14:07:36;17.33;;;15.73;;
1376;SDS011;682;52.502;13.488;2024-03-08T14:10:04;20.40;;;16.17;;
1376;SDS011;682;52.502;13.488;2024-03-08T14:12:34;16.70;;;14.90;;
1376;SDS011;682;52.502;13.488;2024-03-08T14:15:03;17.83;;;15.93;;
1376;SDS011;682;52.502;13.488;2024-03-08T14:17:34;21.37;;;16.50;;
1376;SDS011;682;52.502;13.488;2024-03-08T14:20:04;18.43;;;15.97;;
1376;SDS011;682;52.502;13.488;2024-03-08T14:22:32;20.70;;;16.30;;
1376;SDS011;682;52.502;13.488;2024-03-08T14:24:59;16.37;;;14.77;;
1376;SDS011;682;52.502;13.488;2024-03-08T14:27:27;16.57;;;14.93;;
1376;SDS011;682;52.502;13.488;2024-03-08T14:29:54;17.00;;;15.20;;
1376;SDS011;682;52.502;13.488;2024-03-08T14:32:21;18.93;;;16.13;;
1376;SDS011;682;52.502;13.488;2024-03-08T14:34:48;17.60;;;15.53;;
1376;SDS011;682;52.502;13.488;2024-03-08T14:37:17;16.83;;;15.13;;
1376;SDS011;682;52.502;13.488;2024-03-08T14:39:48;17.73;;;14.80;;
1376;SDS011;682;52.502;13.488;2024-03-08T14:42:17;18.60;;;15.03;;
1376;SDS011;682;52.502;13.488;2024-03-08T14:44:45;16.97;;;14.83;;
1376;SDS011;682;52.502;13.488;2024-03-08T14:47:16;16.77;;;14.47;;
1376;SDS011;682;52.502;13.488;2024-03-08T14:49:43;15.80;;;14.10;;
1376;SDS011;682;52.502;13.488;2024-03-08T14:52:10;16.43;;;13.90;;
1376;SDS011;682;52.502;13.488;2024-03-08T14:54:53;15.00;;;13.17;;
1376;SDS011;682;52.502;13.488;2024-03-08T14:57:21;15.30;;;13.10;;